Terminal Aerodrome Forecast
Issued by NWS

Home | Current Version | Previous Version | Text Only | Print | Product List | Glossary On
Versions: 1 2 3 4 5 6 7 8 9 10 11 12 13 14
000
FTUS41 KPBZ 041417 AAA
TAFLBE
TAF AMD
KLBE 041417Z 0414/0512 VRB03KT 3SM BR OVC006
     FM041500 32005KT 5SM BR BKN015
     FM041600 33008KT P6SM BKN025
     FM041800 32008KT P6SM SCT040
     FM050800 00000KT 3SM BR SKC=

USA.gov is the U.S. government's official web portal to all federal, state and local government web resources and services.